sensor_id;sensor_type;location;lat;lon;timestamp;P1;durP1;ratioP1;P2;durP2;ratioP2
28170;SDS011;15458;53.346;-1.688;2023-01-15T00:01:05;6.10;;;1.58;;
28170;SDS011;15458;53.346;-1.688;2023-01-15T00:03:46;9.15;;;2.72;;
28170;SDS011;15458;53.346;-1.688;2023-01-15T00:06:13;12.75;;;1.85;;
28170;SDS011;15458;53.346;-1.688;2023-01-15T00:08:40;6.47;;;1.38;;
28170;SDS011;15458;53.346;-1.688;2023-01-15T00:11:07;8.93;;;1.60;;
28170;SDS011;15458;53.346;-1.688;2023-01-15T00:13:33;7.93;;;1.55;;
28170;SDS011;15458;53.346;-1.688;2023-01-15T00:16:05;5.07;;;1.88;;
28170;SDS011;15458;53.346;-1.688;2023-01-15T00:18:32;9.93;;;1.60;;
28170;SDS011;15458;53.346;-1.688;2023-01-15T00:21:02;7.32;;;1.15;;
28170;SDS011;15458;53.346;-1.688;2023-01-15T00:23:30;10.70;;;2.00;;
28170;SDS011;15458;53.346;-1.688;2023-01-15T00:26:18;10.80;;;1.77;;
28170;SDS011;15458;53.346;-1.688;2023-01-15T00:29:04;8.02;;;1.17;;
28170;SDS011;15458;53.346;-1.688;2023-01-15T00:31:31;11.35;;;1.27;;
28170;SDS011;15458;53.346;-1.688;2023-01-15T00:33:58;6.57;;;1.80;;
28170;SDS011;15458;53.346;-1.688;2023-01-15T00:36:23;9.20;;;1.52;;
28170;SDS011;15458;53.346;-1.688;2023-01-15T00:38:50;2.45;;;1.17;;
28170;SDS011;15458;53.346;-1.688;2023-01-15T00:41:15;12.18;;;1.60;;
28170;SDS011;15458;53.346;-1.688;2023-01-15T00:43:41;9.00;;;1.00;;
28170;SDS011;15458;53.346;-1.688;2023-01-15T00:46:07;8.25;;;1.50;;
28170;SDS011;15458;53.346;-1.688;2023-01-15T00:48:36;3.97;;;1.35;;
28170;SDS011;15458;53.346;-1.688;2023-01-15T00:51:02;10.35;;;2.00;;
28170;SDS011;15458;53.346;-1.688;2023-01-15T00:53:28;7.07;;;1.00;;
28170;SDS011;15458;53.346;-1.688;2023-01-15T00:55:54;8.82;;;1.48;;
28170;SDS011;15458;53.346;-1.688;2023-01-15T00:58:20;8.02;;;1.42;;
28170;SDS011;15458;53.346;-1.688;2023-01-15T01:00:51;5.75;;;1.20;;
28170;SDS011;15458;53.346;-1.688;2023-01-15T01:03:17;4.55;;;3.00;;
28170;SDS011;15458;53.346;-1.688;2023-01-15T01:05:43;11.65;;;2.00;;
28170;SDS011;15458;53.346;-1.688;2023-01-15T01:08:09;7.72;;;1.10;;
28170;SDS011;15458;53.346;-1.688;2023-01-15T01:10:34;4.28;;;0.75;;
28170;SDS011;15458;53.346;-1.688;2023-01-15T01:13:00;1.80;;;0.73;;
28170;SDS011;15458;53.346;-1.688;2023-01-15T01:15:25;4.70;;;1.13;;
28170;SDS011;15458;53.346;-1.688;2023-01-15T01:17:51;5.25;;;0.70;;
28170;SDS011;15458;53.346;-1.688;2023-01-15T01:20:17;5.32;;;0.75;;
28170;SDS011;15458;53.346;-1.688;2023-01-15T01:22:43;5.30;;;1.17;;
28170;SDS011;15458;53.346;-1.688;2023-01-15T01:25:09;10.43;;;0.90;;
28170;SDS011;15458;53.346;-1.688;2023-01-15T01:27:35;12.05;;;2.35;;
28170;SDS011;15458;53.346;-1.688;2023-01-15T01:30:00;6.43;;;1.15;;
28170;SDS011;15458;53.346;-1.688;2023-01-15T01:32:26;6.40;;;1.48;;
28170;SDS011;15458;53.346;-1.688;2023-01-15T01:34:52;6.05;;;1.02;;
28170;SDS011;15458;53.346;-1.688;2023-01-15T01:37:18;7.55;;;1.10;;
28170;SDS011;15458;53.346;-1.688;2023-01-15T01:39:43;6.38;;;1.10;;
28170;SDS011;15458;53.346;-1.688;2023-01-15T01:42:13;7.60;;;1.25;;
28170;SDS011;15458;53.346;-1.688;2023-01-15T01:47:08;4.35;;;1.08;;
28170;SDS011;15458;53.346;-1.688;2023-01-15T01:49:39;6.20;;;1.52;;
28170;SDS011;15458;53.346;-1.688;2023-01-15T01:52:11;9.38;;;1.08;;
28170;SDS011;15458;53.346;-1.688;2023-01-15T01:54:43;8.68;;;1.17;;
28170;SDS011;15458;53.346;-1.688;2023-01-15T01:57:11;1.95;;;0.85;;
28170;SDS011;15458;53.346;-1.688;2023-01-15T01:59:38;5.88;;;1.10;;
28170;SDS011;15458;53.346;-1.688;2023-01-15T02:02:04;5.15;;;0.82;;
28170;SDS011;15458;53.346;-1.688;2023-01-15T02:04:30;6.93;;;1.17;;
28170;SDS011;15458;53.346;-1.688;2023-01-15T02:06:57;6.43;;;0.90;;
28170;SDS011;15458;53.346;-1.688;2023-01-15T02:09:25;3.72;;;0.75;;
28170;SDS011;15458;53.346;-1.688;2023-01-15T02:11:50;4.95;;;1.33;;
28170;SDS011;15458;53.346;-1.688;2023-01-15T02:14:32;8.68;;;1.27;;
28170;SDS011;15458;53.346;-1.688;2023-01-15T02:28:16;7.90;;;1.02;;
28170;SDS011;15458;53.346;-1.688;2023-01-15T02:30:50;6.40;;;0.80;;
28170;SDS011;15458;53.346;-1.688;2023-01-15T02:33:25;11.30;;;1.20;;
28170;SDS011;15458;53.346;-1.688;2023-01-15T02:35:57;5.00;;;1.05;;
28170;SDS011;15458;53.346;-1.688;2023-01-15T02:38:25;5.30;;;0.85;;
28170;SDS011;15458;53.346;-1.688;2023-01-15T02:40:56;4.78;;;0.85;;
28170;SDS011;15458;53.346;-1.688;2023-01-15T02:43:25;5.07;;;1.20;;
28170;SDS011;15458;53.346;-1.688;2023-01-15T02:45:53;1.42;;;0.50;;
28170;SDS011;15458;53.346;-1.688;2023-01-15T02:48:23;6.93;;;1.00;;
28170;SDS011;15458;53.346;-1.688;2023-01-15T02:50:52;2.97;;;0.80;;
28170;SDS011;15458;53.346;-1.688;2023-01-15T02:53:24;4.65;;;1.23;;
28170;SDS011;15458;53.346;-1.688;2023-01-15T02:55:53;8.18;;;0.93;;
28170;SDS011;15458;53.346;-1.688;2023-01-15T02:58:24;4.90;;;0.80;;
28170;SDS011;15458;53.346;-1.688;2023-01-15T03:00:53;14.25;;;1.20;;
28170;SDS011;15458;53.346;-1.688;2023-01-15T03:03:30;4.60;;;0.80;;
28170;SDS011;15458;53.346;-1.688;2023-01-15T03:06:03;3.30;;;1.20;;
28170;SDS011;15458;53.346;-1.688;2023-01-15T03:08:51;3.25;;;0.80;;
28170;SDS011;15458;53.346;-1.688;2023-01-15T03:11:17;7.85;;;1.58;;
28170;SDS011;15458;53.346;-1.688;2023-01-15T03:13:48;14.00;;;1.23;;
28170;SDS011;15458;53.346;-1.688;2023-01-15T03:16:37;4.47;;;0.82;;
28170;SDS011;15458;53.346;-1.688;2023-01-15T03:21:42;4.15;;;0.68;;
28170;SDS011;15458;53.346;-1.688;2023-01-15T03:24:20;6.93;;;1.10;;
28170;SDS011;15458;53.346;-1.688;2023-01-15T03:26:53;5.57;;;0.70;;
28170;SDS011;15458;53.346;-1.688;2023-01-15T03:29:19;5.63;;;0.73;;
28170;SDS011;15458;53.346;-1.688;2023-01-15T03:31:46;7.30;;;0.95;;
28170;SDS011;15458;53.346;-1.688;2023-01-15T03:34:13;3.65;;;1.00;;
28170;SDS011;15458;53.346;-1.688;2023-01-15T03:36:39;6.43;;;1.10;;
28170;SDS011;15458;53.346;-1.688;2023-01-15T03:39:05;8.95;;;1.52;;
28170;SDS011;15458;53.346;-1.688;2023-01-15T03:41:34;2.35;;;0.77;;
28170;SDS011;15458;53.346;-1.688;2023-01-15T03:46:50;9.00;;;1.02;;
28170;SDS011;15458;53.346;-1.688;2023-01-15T03:52:30;10.73;;;1.02;;
28170;SDS011;15458;53.346;-1.688;2023-01-15T03:54:59;6.95;;;1.00;;
28170;SDS011;15458;53.346;-1.688;2023-01-15T03:57:33;5.45;;;1.08;;
28170;SDS011;15458;53.346;-1.688;2023-01-15T04:00:12;7.07;;;1.13;;
28170;SDS011;15458;53.346;-1.688;2023-01-15T04:02:42;5.47;;;1.02;;
28170;SDS011;15458;53.346;-1.688;2023-01-15T04:05:09;6.82;;;0.98;;
28170;SDS011;15458;53.346;-1.688;2023-01-15T04:07:35;4.53;;;1.10;;
28170;SDS011;15458;53.346;-1.688;2023-01-15T04:10:01;9.10;;;0.90;;
28170;SDS011;15458;53.346;-1.688;2023-01-15T04:12:30;7.07;;;1.05;;
28170;SDS011;15458;53.346;-1.688;2023-01-15T04:14:58;6.03;;;0.55;;
28170;SDS011;15458;53.346;-1.688;2023-01-15T04:17:23;5.90;;;0.90;;
28170;SDS011;15458;53.346;-1.688;2023-01-15T04:19:49;2.90;;;0.82;;
28170;SDS011;15458;53.346;-1.688;2023-01-15T04:22:15;5.25;;;1.02;;
28170;SDS011;15458;53.346;-1.688;2023-01-15T04:24:41;6.35;;;0.60;;
28170;SDS011;15458;53.346;-1.688;2023-01-15T04:27:06;7.28;;;0.88;;
28170;SDS011;15458;53.346;-1.688;2023-01-15T04:29:32;2.08;;;0.50;;
28170;SDS011;15458;53.346;-1.688;2023-01-15T04:31:58;8.55;;;1.10;;
28170;SDS011;15458;53.346;-1.688;2023-01-15T04:34:24;9.75;;;1.00;;
28170;SDS011;15458;53.346;-1.688;2023-01-15T04:36:51;4.15;;;0.82;;
28170;SDS011;15458;53.346;-1.688;2023-01-15T04:39:17;5.60;;;1.25;;
28170;SDS011;15458;53.346;-1.688;2023-01-15T04:41:43;3.67;;;0.38;;
28170;SDS011;15458;53.346;-1.688;2023-01-15T04:44:28;3.50;;;0.60;;
28170;SDS011;15458;53.346;-1.688;2023-01-15T04:46:54;6.72;;;0.80;;
28170;SDS011;15458;53.346;-1.688;2023-01-15T04:49:21;2.22;;;0.82;;
28170;SDS011;15458;53.346;-1.688;2023-01-15T04:51:47;5.18;;;0.70;;
28170;SDS011;15458;53.346;-1.688;2023-01-15T04:54:13;5.85;;;0.70;;
28170;SDS011;15458;53.346;-1.688;2023-01-15T04:56:41;6.25;;;0.50;;
28170;SDS011;15458;53.346;-1.688;2023-01-15T04:59:09;5.32;;;0.80;;
28170;SDS011;15458;53.346;-1.688;2023-01-15T05:01:34;1.42;;;0.60;;
28170;SDS011;15458;53.346;-1.688;2023-01-15T05:04:01;4.18;;;0.50;;
28170;SDS011;15458;53.346;-1.688;2023-01-15T05:06:27;5.22;;;0.75;;
28170;SDS011;15458;53.346;-1.688;2023-01-15T05:08:53;4.65;;;0.85;;
28170;SDS011;15458;53.346;-1.688;2023-01-15T05:11:19;5.53;;;0.63;;
28170;SDS011;15458;53.346;-1.688;2023-01-15T05:13:45;8.05;;;1.08;;
28170;SDS011;15458;53.346;-1.688;2023-01-15T05:18:41;2.88;;;0.60;;
28170;SDS011;15458;53.346;-1.688;2023-01-15T05:21:18;2.75;;;0.73;;
28170;SDS011;15458;53.346;-1.688;2023-01-15T05:23:49;3.67;;;0.80;;
28170;SDS011;15458;53.346;-1.688;2023-01-15T05:26:16;6.35;;;1.10;;
28170;SDS011;15458;53.346;-1.688;2023-01-15T05:28:42;2.50;;;0.60;;
28170;SDS011;15458;53.346;-1.688;2023-01-15T05:31:13;6.40;;;0.70;;
28170;SDS011;15458;53.346;-1.688;2023-01-15T05:33:41;3.25;;;0.60;;
28170;SDS011;15458;53.346;-1.688;2023-01-15T05:36:09;4.47;;;0.82;;
28170;SDS011;15458;53.346;-1.688;2023-01-15T05:38:37;0.82;;;0.40;;
28170;SDS011;15458;53.346;-1.688;2023-01-15T05:41:03;5.35;;;0.63;;
28170;SDS011;15458;53.346;-1.688;2023-01-15T05:43:49;3.65;;;0.50;;
28170;SDS011;15458;53.346;-1.688;2023-01-15T05:46:16;5.15;;;0.77;;
28170;SDS011;15458;53.346;-1.688;2023-01-15T05:48:41;3.40;;;0.52;;
28170;SDS011;15458;53.346;-1.688;2023-01-15T05:51:07;4.25;;;0.47;;
28170;SDS011;15458;53.346;-1.688;2023-01-15T05:53:33;3.97;;;0.93;;
28170;SDS011;15458;53.346;-1.688;2023-01-15T05:56:02;2.35;;;0.57;;
28170;SDS011;15458;53.346;-1.688;2023-01-15T05:58:28;9.60;;;0.73;;
28170;SDS011;15458;53.346;-1.688;2023-01-15T06:00:55;3.33;;;0.55;;
28170;SDS011;15458;53.346;-1.688;2023-01-15T06:03:21;1.33;;;0.50;;
28170;SDS011;15458;53.346;-1.688;2023-01-15T06:05:51;0.80;;;0.20;;
28170;SDS011;15458;53.346;-1.688;2023-01-15T06:08:18;0.25;;;0.15;;
28170;SDS011;15458;53.346;-1.688;2023-01-15T06:10:44;4.60;;;1.27;;
28170;SDS011;15458;53.346;-1.688;2023-01-15T06:13:09;2.75;;;0.52;;
28170;SDS011;15458;53.346;-1.688;2023-01-15T06:15:35;7.55;;;1.60;;
28170;SDS011;15458;53.346;-1.688;2023-01-15T06:18:01;4.55;;;1.08;;
28170;SDS011;15458;53.346;-1.688;2023-01-15T06:20:26;9.98;;;1.15;;
28170;SDS011;15458;53.346;-1.688;2023-01-15T06:22:52;4.82;;;1.00;;
28170;SDS011;15458;53.346;-1.688;2023-01-15T06:25:17;3.20;;;0.47;;
28170;SDS011;15458;53.346;-1.688;2023-01-15T06:27:43;6.38;;;0.80;;
28170;SDS011;15458;53.346;-1.688;2023-01-15T06:30:09;3.25;;;0.60;;
28170;SDS011;15458;53.346;-1.688;2023-01-15T06:32:35;1.65;;;0.70;;
28170;SDS011;15458;53.346;-1.688;2023-01-15T06:35:02;4.55;;;0.70;;
28170;SDS011;15458;53.346;-1.688;2023-01-15T06:37:27;2.72;;;0.60;;
28170;SDS011;15458;53.346;-1.688;2023-01-15T06:39:53;3.65;;;1.20;;
28170;SDS011;15458;53.346;-1.688;2023-01-15T06:42:19;7.20;;;1.48;;
28170;SDS011;15458;53.346;-1.688;2023-01-15T06:45:03;4.97;;;1.10;;
28170;SDS011;15458;53.346;-1.688;2023-01-15T06:47:47;5.28;;;0.90;;
28170;SDS011;15458;53.346;-1.688;2023-01-15T06:50:13;9.80;;;1.00;;
28170;SDS011;15458;53.346;-1.688;2023-01-15T06:52:39;8.90;;;3.03;;
28170;SDS011;15458;53.346;-1.688;2023-01-15T06:55:05;7.13;;;1.67;;
28170;SDS011;15458;53.346;-1.688;2023-01-15T06:57:31;6.05;;;2.53;;
28170;SDS011;15458;53.346;-1.688;2023-01-15T06:59:57;13.70;;;2.85;;
28170;SDS011;15458;53.346;-1.688;2023-01-15T07:02:23;13.90;;;3.42;;
28170;SDS011;15458;53.346;-1.688;2023-01-15T07:04:48;11.57;;;4.78;;
28170;SDS011;15458;53.346;-1.688;2023-01-15T07:07:16;10.63;;;4.20;;
28170;SDS011;15458;53.346;-1.688;2023-01-15T07:09:43;12.38;;;4.03;;
28170;SDS011;15458;53.346;-1.688;2023-01-15T07:12:09;10.13;;;3.22;;
28170;SDS011;15458;53.346;-1.688;2023-01-15T07:14:35;6.53;;;1.88;;
28170;SDS011;15458;53.346;-1.688;2023-01-15T07:17:01;4.57;;;1.45;;
28170;SDS011;15458;53.346;-1.688;2023-01-15T07:19:27;4.45;;;1.58;;
28170;SDS011;15458;53.346;-1.688;2023-01-15T07:21:52;11.73;;;1.73;;
28170;SDS011;15458;53.346;-1.688;2023-01-15T07:24:18;5.05;;;1.50;;
28170;SDS011;15458;53.346;-1.688;2023-01-15T07:26:44;4.13;;;1.10;;
28170;SDS011;15458;53.346;-1.688;2023-01-15T07:29:10;6.07;;;2.63;;
28170;SDS011;15458;53.346;-1.688;2023-01-15T07:31:36;7.53;;;1.70;;
28170;SDS011;15458;53.346;-1.688;2023-01-15T07:34:02;3.13;;;1.73;;
28170;SDS011;15458;53.346;-1.688;2023-01-15T07:36:28;11.82;;;3.97;;
28170;SDS011;15458;53.346;-1.688;2023-01-15T07:38:54;7.68;;;2.97;;
28170;SDS011;15458;53.346;-1.688;2023-01-15T07:41:19;13.07;;;3.03;;
28170;SDS011;15458;53.346;-1.688;2023-01-15T07:44:04;8.02;;;2.58;;
28170;SDS011;15458;53.346;-1.688;2023-01-15T07:50:14;4.95;;;1.92;;
28170;SDS011;15458;53.346;-1.688;2023-01-15T07:52:42;4.75;;;1.50;;
28170;SDS011;15458;53.346;-1.688;2023-01-15T07:55:08;7.57;;;1.00;;
28170;SDS011;15458;53.346;-1.688;2023-01-15T07:57:36;7.28;;;1.73;;
28170;SDS011;15458;53.346;-1.688;2023-01-15T08:00:03;7.47;;;1.73;;
28170;SDS011;15458;53.346;-1.688;2023-01-15T08:02:34;4.32;;;1.38;;
28170;SDS011;15458;53.346;-1.688;2023-01-15T08:04:59;5.68;;;0.80;;
28170;SDS011;15458;53.346;-1.688;2023-01-15T08:07:25;5.97;;;0.75;;
28170;SDS011;15458;53.346;-1.688;2023-01-15T08:09:51;2.70;;;0.70;;
28170;SDS011;15458;53.346;-1.688;2023-01-15T08:12:17;7.82;;;0.95;;
28170;SDS011;15458;53.346;-1.688;2023-01-15T08:15:01;4.00;;;1.30;;
28170;SDS011;15458;53.346;-1.688;2023-01-15T08:17:41;5.90;;;0.70;;
28170;SDS011;15458;53.346;-1.688;2023-01-15T08:20:13;1.67;;;0.60;;
28170;SDS011;15458;53.346;-1.688;2023-01-15T08:22:40;5.43;;;0.88;;
28170;SDS011;15458;53.346;-1.688;2023-01-15T08:25:07;1.38;;;0.43;;
28170;SDS011;15458;53.346;-1.688;2023-01-15T08:27:34;2.78;;;1.10;;
28170;SDS011;15458;53.346;-1.688;2023-01-15T08:30:02;5.53;;;0.93;;
28170;SDS011;15458;53.346;-1.688;2023-01-15T08:32:28;6.47;;;1.33;;
28170;SDS011;15458;53.346;-1.688;2023-01-15T08:34:54;3.20;;;0.77;;
28170;SDS011;15458;53.346;-1.688;2023-01-15T08:37:20;1.27;;;1.13;;
28170;SDS011;15458;53.346;-1.688;2023-01-15T08:39:45;2.95;;;0.82;;
28170;SDS011;15458;53.346;-1.688;2023-01-15T08:42:11;1.13;;;0.40;;
28170;SDS011;15458;53.346;-1.688;2023-01-15T08:44:37;0.43;;;0.20;;
28170;SDS011;15458;53.346;-1.688;2023-01-15T08:47:03;2.15;;;0.65;;
28170;SDS011;15458;53.346;-1.688;2023-01-15T08:49:28;1.35;;;0.60;;
28170;SDS011;15458;53.346;-1.688;2023-01-15T08:51:54;0.98;;;0.47;;
28170;SDS011;15458;53.346;-1.688;2023-01-15T08:54:20;2.67;;;0.57;;
28170;SDS011;15458;53.346;-1.688;2023-01-15T08:56:48;1.15;;;0.55;;
28170;SDS011;15458;53.346;-1.688;2023-01-15T08:59:14;3.60;;;0.70;;
28170;SDS011;15458;53.346;-1.688;2023-01-15T09:01:40;3.35;;;1.17;;
28170;SDS011;15458;53.346;-1.688;2023-01-15T09:04:06;1.02;;;0.47;;
28170;SDS011;15458;53.346;-1.688;2023-01-15T09:06:36;1.48;;;0.60;;
28170;SDS011;15458;53.346;-1.688;2023-01-15T09:09:11;0.60;;;0.20;;
28170;SDS011;15458;53.346;-1.688;2023-01-15T09:11:38;2.20;;;0.40;;
28170;SDS011;15458;53.346;-1.688;2023-01-15T09:14:05;0.38;;;0.38;;
28170;SDS011;15458;53.346;-1.688;2023-01-15T09:16:32;1.38;;;0.20;;
28170;SDS011;15458;53.346;-1.688;2023-01-15T09:18:58;0.52;;;0.40;;
28170;SDS011;15458;53.346;-1.688;2023-01-15T09:21:23;1.63;;;0.55;;
28170;SDS011;15458;53.346;-1.688;2023-01-15T09:23:49;1.27;;;0.35;;
28170;SDS011;15458;53.346;-1.688;2023-01-15T09:26:25;1.63;;;0.50;;
28170;SDS011;15458;53.346;-1.688;2023-01-15T09:28:56;1.77;;;0.50;;
28170;SDS011;15458;53.346;-1.688;2023-01-15T09:31:23;2.30;;;0.40;;
28170;SDS011;15458;53.346;-1.688;2023-01-15T09:33:49;1.70;;;0.40;;
28170;SDS011;15458;53.346;-1.688;2023-01-15T09:36:15;3.10;;;0.80;;
28170;SDS011;15458;53.346;-1.688;2023-01-15T09:39:02;4.43;;;0.93;;
28170;SDS011;15458;53.346;-1.688;2023-01-15T09:47:33;0.90;;;0.70;;
28170;SDS011;15458;53.346;-1.688;2023-01-15T09:55:27;2.78;;;0.98;;
28170;SDS011;15458;53.346;-1.688;2023-01-15T09:57:56;0.82;;;0.30;;
28170;SDS011;15458;53.346;-1.688;2023-01-15T10:00:25;4.82;;;1.15;;
28170;SDS011;15458;53.346;-1.688;2023-01-15T10:05:49;1.48;;;0.70;;
28170;SDS011;15458;53.346;-1.688;2023-01-15T10:08:23;2.38;;;0.70;;
28170;SDS011;15458;53.346;-1.688;2023-01-15T10:11:18;2.63;;;0.65;;
28170;SDS011;15458;53.346;-1.688;2023-01-15T10:13:49;1.05;;;0.60;;
28170;SDS011;15458;53.346;-1.688;2023-01-15T10:16:24;3.30;;;0.60;;
28170;SDS011;15458;53.346;-1.688;2023-01-15T10:18:53;0.60;;;0.52;;
28170;SDS011;15458;53.346;-1.688;2023-01-15T10:24:04;4.25;;;1.13;;
28170;SDS011;15458;53.346;-1.688;2023-01-15T10:26:38;3.55;;;1.23;;
28170;SDS011;15458;53.346;-1.688;2023-01-15T10:45:46;5.55;;;1.70;;
28170;SDS011;15458;53.346;-1.688;2023-01-15T10:51:20;5.55;;;2.05;;
28170;SDS011;15458;53.346;-1.688;2023-01-15T10:59:32;6.93;;;3.08;;
28170;SDS011;15458;53.346;-1.688;2023-01-15T11:04:48;4.55;;;1.60;;
28170;SDS011;15458;53.346;-1.688;2023-01-15T11:07:14;4.05;;;1.30;;
28170;SDS011;15458;53.346;-1.688;2023-01-15T11:09:41;3.75;;;1.30;;
28170;SDS011;15458;53.346;-1.688;2023-01-15T11:12:22;3.65;;;1.77;;
28170;SDS011;15458;53.346;-1.688;2023-01-15T11:14:50;2.25;;;1.20;;
28170;SDS011;15458;53.346;-1.688;2023-01-15T11:17:42;1.80;;;0.90;;
28170;SDS011;15458;53.346;-1.688;2023-01-15T11:20:32;1.77;;;1.20;;
28170;SDS011;15458;53.346;-1.688;2023-01-15T11:25:33;2.85;;;1.02;;
28170;SDS011;15458;53.346;-1.688;2023-01-15T11:28:02;0.77;;;0.75;;
28170;SDS011;15458;53.346;-1.688;2023-01-15T11:30:34;2.20;;;1.10;;
28170;SDS011;15458;53.346;-1.688;2023-01-15T11:33:02;1.65;;;1.15;;
28170;SDS011;15458;53.346;-1.688;2023-01-15T11:35:29;3.97;;;1.50;;
28170;SDS011;15458;53.346;-1.688;2023-01-15T11:38:12;2.50;;;1.42;;
28170;SDS011;15458;53.346;-1.688;2023-01-15T11:40:38;6.78;;;2.08;;
28170;SDS011;15458;53.346;-1.688;2023-01-15T11:43:22;7.03;;;2.20;;
28170;SDS011;15458;53.346;-1.688;2023-01-15T11:49:12;8.27;;;3.97;;
28170;SDS011;15458;53.346;-1.688;2023-01-15T11:52:03;7.95;;;3.35;;
28170;SDS011;15458;53.346;-1.688;2023-01-15T11:54:51;9.30;;;4.43;;
28170;SDS011;15458;53.346;-1.688;2023-01-15T11:57:26;9.38;;;3.47;;
28170;SDS011;15458;53.346;-1.688;2023-01-15T11:59:56;14.30;;;4.63;;
28170;SDS011;15458;53.346;-1.688;2023-01-15T12:05:14;9.07;;;3.95;;
28170;SDS011;15458;53.346;-1.688;2023-01-15T12:07:45;17.55;;;5.70;;
28170;SDS011;15458;53.346;-1.688;2023-01-15T12:13:09;17.13;;;7.85;;
28170;SDS011;15458;53.346;-1.688;2023-01-15T12:18:57;26.75;;;9.02;;
28170;SDS011;15458;53.346;-1.688;2023-01-15T12:21:43;18.92;;;6.82;;
28170;SDS011;15458;53.346;-1.688;2023-01-15T12:29:44;10.00;;;5.25;;
28170;SDS011;15458;53.346;-1.688;2023-01-15T12:32:22;15.23;;;4.70;;
28170;SDS011;15458;53.346;-1.688;2023-01-15T12:34:57;13.90;;;5.00;;
28170;SDS011;15458;53.346;-1.688;2023-01-15T12:37:31;12.68;;;5.20;;
28170;SDS011;15458;53.346;-1.688;2023-01-15T12:42:41;16.73;;;5.25;;
28170;SDS011;15458;53.346;-1.688;2023-01-15T12:45:30;19.83;;;5.25;;
28170;SDS011;15458;53.346;-1.688;2023-01-15T12:50:51;16.47;;;4.13;;
28170;SDS011;15458;53.346;-1.688;2023-01-15T13:07:21;12.55;;;3.92;;
28170;SDS011;15458;53.346;-1.688;2023-01-15T13:12:41;21.25;;;4.90;;
28170;SDS011;15458;53.346;-1.688;2023-01-15T13:15:14;22.73;;;4.38;;
28170;SDS011;15458;53.346;-1.688;2023-01-15T13:20:46;14.38;;;4.05;;
28170;SDS011;15458;53.346;-1.688;2023-01-15T13:26:02;14.40;;;4.38;;
28170;SDS011;15458;53.346;-1.688;2023-01-15T13:34:30;22.80;;;5.10;;
28170;SDS011;15458;53.346;-1.688;2023-01-15T13:37:08;13.85;;;3.88;;
28170;SDS011;15458;53.346;-1.688;2023-01-15T13:40:02;13.20;;;2.97;;
28170;SDS011;15458;53.346;-1.688;2023-01-15T13:42:49;13.95;;;2.83;;
28170;SDS011;15458;53.346;-1.688;2023-01-15T13:48:10;20.73;;;9.32;;
28170;SDS011;15458;53.346;-1.688;2023-01-15T13:50:52;41.20;;;15.07;;
28170;SDS011;15458;53.346;-1.688;2023-01-15T13:55:59;15.38;;;3.28;;
28170;SDS011;15458;53.346;-1.688;2023-01-15T13:58:34;10.60;;;3.75;;
28170;SDS011;15458;53.346;-1.688;2023-01-15T14:03:59;15.15;;;4.68;;
28170;SDS011;15458;53.346;-1.688;2023-01-15T14:09:09;24.15;;;5.72;;
28170;SDS011;15458;53.346;-1.688;2023-01-15T14:20:25;19.15;;;5.63;;
28170;SDS011;15458;53.346;-1.688;2023-01-15T14:31:05;18.00;;;5.90;;
28170;SDS011;15458;53.346;-1.688;2023-01-15T14:36:31;18.85;;;4.57;;
28170;SDS011;15458;53.346;-1.688;2023-01-15T14:39:03;13.10;;;4.05;;
28170;SDS011;15458;53.346;-1.688;2023-01-15T14:41:44;11.90;;;3.50;;
28170;SDS011;15458;53.346;-1.688;2023-01-15T14:44:29;5.95;;;2.20;;
28170;SDS011;15458;53.346;-1.688;2023-01-15T14:46:57;22.90;;;3.92;;
28170;SDS011;15458;53.346;-1.688;2023-01-15T14:49:29;9.88;;;3.58;;
28170;SDS011;15458;53.346;-1.688;2023-01-15T14:52:06;16.75;;;3.90;;
28170;SDS011;15458;53.346;-1.688;2023-01-15T14:54:32;16.77;;;3.88;;
28170;SDS011;15458;53.346;-1.688;2023-01-15T14:56:58;13.90;;;3.70;;
28170;SDS011;15458;53.346;-1.688;2023-01-15T14:59:27;17.75;;;3.80;;
28170;SDS011;15458;53.346;-1.688;2023-01-15T15:02:14;17.80;;;3.55;;
28170;SDS011;15458;53.346;-1.688;2023-01-15T15:04:55;10.25;;;3.90;;
28170;SDS011;15458;53.346;-1.688;2023-01-15T15:07:23;13.90;;;3.47;;
28170;SDS011;15458;53.346;-1.688;2023-01-15T15:09:54;15.93;;;4.82;;
28170;SDS011;15458;53.346;-1.688;2023-01-15T15:15:47;9.38;;;4.30;;
28170;SDS011;15458;53.346;-1.688;2023-01-15T15:20:49;16.02;;;4.55;;
28170;SDS011;15458;53.346;-1.688;2023-01-15T15:26:27;24.20;;;4.80;;
28170;SDS011;15458;53.346;-1.688;2023-01-15T15:29:05;10.73;;;4.80;;
28170;SDS011;15458;53.346;-1.688;2023-01-15T15:31:35;17.70;;;5.82;;
28170;SDS011;15458;53.346;-1.688;2023-01-15T15:34:29;18.30;;;5.70;;
28170;SDS011;15458;53.346;-1.688;2023-01-15T15:37:12;16.02;;;5.57;;
28170;SDS011;15458;53.346;-1.688;2023-01-15T15:39:45;19.45;;;4.10;;
28170;SDS011;15458;53.346;-1.688;2023-01-15T15:42:23;10.07;;;3.80;;
28170;SDS011;15458;53.346;-1.688;2023-01-15T15:45:49;21.13;;;6.80;;
28170;SDS011;15458;53.346;-1.688;2023-01-15T15:48:37;10.10;;;5.13;;
28170;SDS011;15458;53.346;-1.688;2023-01-15T15:54:12;14.00;;;4.10;;
28170;SDS011;15458;53.346;-1.688;2023-01-15T16:04:50;17.27;;;5.15;;
28170;SDS011;15458;53.346;-1.688;2023-01-15T16:07:20;24.92;;;8.13;;
28170;SDS011;15458;53.346;-1.688;2023-01-15T16:10:03;14.07;;;3.97;;
28170;SDS011;15458;53.346;-1.688;2023-01-15T16:12:41;13.38;;;4.45;;
28170;SDS011;15458;53.346;-1.688;2023-01-15T16:15:16;14.77;;;4.80;;
28170;SDS011;15458;53.346;-1.688;2023-01-15T16:17:44;11.27;;;3.13;;
28170;SDS011;15458;53.346;-1.688;2023-01-15T16:20:14;9.00;;;3.22;;
28170;SDS011;15458;53.346;-1.688;2023-01-15T16:22:55;5.78;;;1.85;;
28170;SDS011;15458;53.346;-1.688;2023-01-15T16:25:24;12.98;;;2.50;;
28170;SDS011;15458;53.346;-1.688;2023-01-15T16:27:52;10.02;;;3.03;;
28170;SDS011;15458;53.346;-1.688;2023-01-15T16:30:18;9.63;;;2.03;;
28170;SDS011;15458;53.346;-1.688;2023-01-15T16:32:45;15.30;;;2.20;;
28170;SDS011;15458;53.346;-1.688;2023-01-15T16:35:19;11.95;;;2.08;;
28170;SDS011;15458;53.346;-1.688;2023-01-15T16:37:49;6.07;;;2.63;;
28170;SDS011;15458;53.346;-1.688;2023-01-15T16:40:27;7.93;;;1.60;;
28170;SDS011;15458;53.346;-1.688;2023-01-15T16:43:11;8.40;;;2.33;;
28170;SDS011;15458;53.346;-1.688;2023-01-15T16:50:54;6.28;;;1.88;;
28170;SDS011;15458;53.346;-1.688;2023-01-15T16:53:30;10.35;;;1.73;;
28170;SDS011;15458;53.346;-1.688;2023-01-15T16:55:59;10.32;;;2.15;;
28170;SDS011;15458;53.346;-1.688;2023-01-15T16:58:36;5.82;;;1.80;;
28170;SDS011;15458;53.346;-1.688;2023-01-15T17:01:45;14.25;;;4.03;;
28170;SDS011;15458;53.346;-1.688;2023-01-15T17:04:00;7.78;;;2.30;;
28170;SDS011;15458;53.346;-1.688;2023-01-15T17:06:28;10.68;;;2.13;;
28170;SDS011;15458;53.346;-1.688;2023-01-15T17:09:00;14.05;;;3.80;;
28170;SDS011;15458;53.346;-1.688;2023-01-15T17:11:26;11.98;;;3.03;;
28170;SDS011;15458;53.346;-1.688;2023-01-15T17:16:46;16.48;;;3.97;;
28170;SDS011;15458;53.346;-1.688;2023-01-15T17:19:15;15.93;;;3.58;;
28170;SDS011;15458;53.346;-1.688;2023-01-15T17:21:41;14.38;;;3.80;;
28170;SDS011;15458;53.346;-1.688;2023-01-15T17:24:23;12.13;;;3.95;;
28170;SDS011;15458;53.346;-1.688;2023-01-15T17:26:49;13.25;;;3.90;;
28170;SDS011;15458;53.346;-1.688;2023-01-15T17:29:14;12.60;;;3.90;;
28170;SDS011;15458;53.346;-1.688;2023-01-15T17:31:40;15.48;;;3.85;;
28170;SDS011;15458;53.346;-1.688;2023-01-15T17:34:08;7.80;;;3.25;;
28170;SDS011;15458;53.346;-1.688;2023-01-15T17:36:34;18.50;;;3.95;;
28170;SDS011;15458;53.346;-1.688;2023-01-15T17:39:00;10.77;;;4.13;;
28170;SDS011;15458;53.346;-1.688;2023-01-15T17:41:28;12.35;;;4.65;;
28170;SDS011;15458;53.346;-1.688;2023-01-15T17:43:54;17.23;;;5.53;;
28170;SDS011;15458;53.346;-1.688;2023-01-15T17:46:21;9.35;;;4.28;;
28170;SDS011;15458;53.346;-1.688;2023-01-15T17:48:48;14.63;;;5.03;;
28170;SDS011;15458;53.346;-1.688;2023-01-15T17:51:14;12.40;;;4.75;;
28170;SDS011;15458;53.346;-1.688;2023-01-15T17:53:40;16.30;;;5.10;;
28170;SDS011;15458;53.346;-1.688;2023-01-15T17:56:06;14.63;;;5.25;;